Time;durP1;ratioP1;P1;durP2;ratioP2;P2;SDS_P1;SDS_P2;PMS_P1;PMS_P2;Temp;Humidity;BMP_temperature;BMP_pressure;BME280_temperature;BME280_humidity;BME280_pressure;Samples;Min_cycle;Max_cycle;Signal;HPM_P1;HPM_P2
2023/05/30 00:02:29;;;;;;;0.30;0.30;;;;;;;;;;10347640;28;20275;-74
2023/05/30 00:07:31;;;;;;;1.13;0.50;;;;;;;;;;10355265;28;20220;-75
2023/05/30 00:12:32;;;;;;;0.47;0.47;;;;;;;;;;10363035;28;20310;-75
2023/05/30 00:17:35;;;;;;;0.75;0.38;;;;;;;;;;10367674;28;20625;-75
2023/05/30 00:22:38;;;;;;;2.17;0.30;;;;;;;;;;10342659;28;20228;-76
2023/05/30 00:27:39;;;;;;;0.50;0.50;;;;;;;;;;10347070;28;20281;-73
2023/05/30 00:32:40;;;;;;;0.40;0.40;;;;;;;;;;10331319;28;20811;-77
2023/05/30 00:37:41;;;;;;;0.50;0.50;;;;;;;;;;10360901;28;20224;-74
2023/05/30 00:42:42;;;;;;;0.88;0.30;;;;;;;;;;10354593;28;20798;-76
2023/05/30 00:47:44;;;;;;;1.05;0.40;;;;;;;;;;10349774;28;20246;-76
2023/05/30 00:52:48;;;;;;;0.50;0.50;;;;;;;;;;10354559;28;20220;-75
2023/05/30 00:57:49;;;;;;;1.23;0.40;;;;;;;;;;10349848;28;20223;-76
2023/05/30 01:02:51;;;;;;;1.45;0.60;;;;;;;;;;10336234;28;20339;-78
2023/05/30 01:07:53;;;;;;;2.95;0.60;;;;;;;;;;10364847;28;20265;-76
2023/05/30 01:13:11;;;;;;;2.08;0.40;;;;;;;;;;10344793;28;20234;-73
2023/05/30 01:18:27;;;;;;;1.73;0.57;;;;;;;;;;10356190;28;20441;-76
2023/05/30 01:23:44;;;;;;;0.77;0.30;;;;;;;;;;10370325;28;20219;-72
2023/05/30 01:28:45;;;;;;;1.05;0.50;;;;;;;;;;10363835;28;20239;-76
2023/05/30 01:33:47;;;;;;;0.50;0.40;;;;;;;;;;10356402;28;20243;-76
2023/05/30 01:38:48;;;;;;;2.40;0.47;;;;;;;;;;10360964;28;20219;-77
2023/05/30 01:43:58;;;;;;;1.10;0.40;;;;;;;;;;10375221;28;20569;-77
2023/05/30 01:49:08;;;;;;;5.82;0.60;;;;;;;;;;10372955;28;20231;-75
2023/05/30 01:54:11;;;;;;;1.42;0.50;;;;;;;;;;10364323;28;20310;-75
2023/05/30 01:59:12;;;;;;;5.13;0.52;;;;;;;;;;10356058;28;20351;-74
2023/05/30 02:04:13;;;;;;;1.45;0.50;;;;;;;;;;10359745;28;20302;-75
2023/05/30 02:09:14;;;;;;;1.98;0.60;;;;;;;;;;10351117;28;20227;-76
2023/05/30 02:14:17;;;;;;;0.60;0.60;;;;;;;;;;10348232;28;20215;-76
2023/05/30 02:19:18;;;;;;;0.60;0.60;;;;;;;;;;10374675;28;20311;-75
2023/05/30 02:24:21;;;;;;;1.17;0.55;;;;;;;;;;10364309;28;20238;-76
2023/05/30 02:29:22;;;;;;;0.45;0.45;;;;;;;;;;10378925;28;20227;-76
2023/05/30 02:34:23;;;;;;;1.05;0.45;;;;;;;;;;10356345;28;20273;-75
2023/05/30 02:39:25;;;;;;;0.45;0.45;;;;;;;;;;10358654;28;20223;-77
2023/05/30 02:44:26;;;;;;;2.78;0.50;;;;;;;;;;10344598;28;20247;-75
2023/05/30 02:49:27;;;;;;;2.17;0.50;;;;;;;;;;10358461;28;20216;-76
2023/05/30 02:54:31;;;;;;;1.48;0.60;;;;;;;;;;10340977;28;20226;-72
2023/05/30 02:59:55;;;;;;;0.95;0.60;;;;;;;;;;10373469;28;20220;-73
2023/05/30 03:04:57;;;;;;;2.17;0.70;;;;;;;;;;10341155;28;21168;-75
2023/05/30 03:10:00;;;;;;;0.98;0.80;;;;;;;;;;10367323;28;20454;-75
2023/05/30 03:15:05;;;;;;;1.15;0.73;;;;;;;;;;10336085;28;20227;-76
2023/05/30 03:20:09;;;;;;;1.95;0.70;;;;;;;;;;10363727;28;20223;-77
2023/05/30 03:25:12;;;;;;;1.35;0.52;;;;;;;;;;10351389;28;20215;-78
2023/05/30 03:30:14;;;;;;;1.52;1.10;;;;;;;;;;10358014;28;20195;-76
2023/05/30 03:35:16;;;;;;;2.63;0.90;;;;;;;;;;10368391;28;20445;-75
2023/05/30 03:40:17;;;;;;;2.90;1.40;;;;;;;;;;10355038;28;20218;-73
2023/05/30 03:45:18;;;;;;;1.85;1.13;;;;;;;;;;10352860;28;20334;-76
2023/05/30 03:50:19;;;;;;;3.70;1.25;;;;;;;;;;10348876;28;20214;-73
2023/05/30 03:55:20;;;;;;;2.83;1.38;;;;;;;;;;10349138;28;20219;-76
2023/05/30 04:00:21;;;;;;;1.98;0.82;;;;;;;;;;10349942;28;20243;-76
2023/05/30 04:05:22;;;;;;;2.08;0.98;;;;;;;;;;10354113;28;20310;-75
2023/05/30 04:10:23;;;;;;;1.70;1.23;;;;;;;;;;10366135;28;20265;-77
2023/05/30 04:15:26;;;;;;;4.82;1.20;;;;;;;;;;10367135;28;20236;-76
2023/05/30 04:20:27;;;;;;;4.55;1.40;;;;;;;;;;10353431;28;20274;-73
2023/05/30 04:25:30;;;;;;;3.90;1.17;;;;;;;;;;10347860;28;20306;-77
2023/05/30 04:30:33;;;;;;;2.67;1.48;;;;;;;;;;10355208;28;20226;-77
2023/05/30 04:35:34;;;;;;;3.00;1.58;;;;;;;;;;10355740;28;20246;-79
2023/05/30 04:40:36;;;;;;;1.77;1.23;;;;;;;;;;10364604;28;20249;-79
2023/05/30 04:45:38;;;;;;;6.68;1.20;;;;;;;;;;10345001;28;20747;-78
2023/05/30 04:50:39;;;;;;;4.95;1.73;;;;;;;;;;10350018;28;20242;-74
2023/05/30 04:55:41;;;;;;;3.08;1.77;;;;;;;;;;10352519;28;20886;-73
2023/05/30 05:00:42;;;;;;;8.82;1.25;;;;;;;;;;10346994;28;20739;-79
2023/05/30 05:05:43;;;;;;;4.13;1.42;;;;;;;;;;10355655;28;20215;-78
2023/05/30 05:10:44;;;;;;;5.63;1.50;;;;;;;;;;10337949;28;20319;-81
2023/05/30 05:15:45;;;;;;;6.90;1.27;;;;;;;;;;10334418;28;20244;-75
2023/05/30 05:20:46;;;;;;;6.00;1.40;;;;;;;;;;10339354;28;20853;-81
2023/05/30 05:25:47;;;;;;;1.60;0.98;;;;;;;;;;10358104;28;20269;-78
2023/05/30 05:30:48;;;;;;;7.00;1.05;;;;;;;;;;10353428;28;20230;-79
2023/05/30 05:35:49;;;;;;;9.60;1.73;;;;;;;;;;10373705;28;20237;-78
2023/05/30 05:40:50;;;;;;;17.20;1.83;;;;;;;;;;10332146;28;20211;-78
2023/05/30 05:45:52;;;;;;;3.30;1.05;;;;;;;;;;10363591;28;20706;-78
2023/05/30 05:50:53;;;;;;;7.28;1.33;;;;;;;;;;10360319;28;20711;-75
2023/05/30 05:55:55;;;;;;;6.88;1.63;;;;;;;;;;10331676;28;20220;-78
2023/05/30 06:00:56;;;;;;;2.97;1.40;;;;;;;;;;10361118;28;20322;-76
2023/05/30 06:05:57;;;;;;;5.95;1.50;;;;;;;;;;10354025;28;20219;-75
2023/05/30 06:10:58;;;;;;;2.72;1.48;;;;;;;;;;10374807;28;20226;-74
2023/05/30 06:15:59;;;;;;;5.43;1.35;;;;;;;;;;10355443;28;20862;-77
2023/05/30 06:21:00;;;;;;;4.90;1.10;;;;;;;;;;10366079;28;20219;-78
2023/05/30 06:26:01;;;;;;;2.90;1.00;;;;;;;;;;10357663;28;20229;-78
2023/05/30 06:31:02;;;;;;;11.80;1.50;;;;;;;;;;10368788;28;20622;-77
2023/05/30 06:36:03;;;;;;;3.97;1.55;;;;;;;;;;10340860;28;20219;-79
2023/05/30 06:41:04;;;;;;;15.23;1.70;;;;;;;;;;10352377;28;20603;-75
2023/05/30 06:46:06;;;;;;;6.10;2.15;;;;;;;;;;10357328;28;20243;-78
2023/05/30 06:51:07;;;;;;;5.57;1.45;;;;;;;;;;10366714;28;20354;-77
2023/05/30 06:56:08;;;;;;;8.98;1.83;;;;;;;;;;10341696;28;20219;-76
2023/05/30 07:01:10;;;;;;;10.13;1.60;;;;;;;;;;10372577;28;20820;-75
2023/05/30 07:06:12;;;;;;;10.20;1.48;;;;;;;;;;10357152;28;20215;-79
2023/05/30 07:11:13;;;;;;;10.82;1.40;;;;;;;;;;10340011;28;20223;-76
2023/05/30 07:16:14;;;;;;;5.32;1.08;;;;;;;;;;10373046;28;20727;-76
2023/05/30 07:21:15;;;;;;;4.95;1.55;;;;;;;;;;10351172;28;20968;-77
2023/05/30 07:26:16;;;;;;;6.95;1.42;;;;;;;;;;10343616;28;20227;-76
2023/05/30 07:31:17;;;;;;;3.78;1.10;;;;;;;;;;10343615;28;20247;-76
2023/05/30 07:36:19;;;;;;;2.72;1.15;;;;;;;;;;10359551;28;21205;-77
2023/05/30 07:41:20;;;;;;;7.75;1.30;;;;;;;;;;10346247;28;20215;-78
2023/05/30 07:46:22;;;;;;;9.95;1.60;;;;;;;;;;10326707;28;20227;-76
2023/05/30 07:51:23;;;;;;;9.90;1.27;;;;;;;;;;10358202;28;20219;-75
2023/05/30 07:56:24;;;;;;;7.07;1.25;;;;;;;;;;10365935;28;20230;-77
2023/05/30 08:01:26;;;;;;;3.58;0.85;;;;;;;;;;10362081;28;20230;-76
2023/05/30 08:06:28;;;;;;;1.67;1.10;;;;;;;;;;10349012;28;20227;-77
2023/05/30 08:11:29;;;;;;;4.43;0.90;;;;;;;;;;10365445;28;20243;-76
2023/05/30 08:16:30;;;;;;;6.28;1.00;;;;;;;;;;10351026;28;20223;-76
2023/05/30 08:21:32;;;;;;;4.82;1.17;;;;;;;;;;10325029;28;20226;-77
2023/05/30 08:26:34;;;;;;;5.03;1.60;;;;;;;;;;10344489;28;20216;-79
2023/05/30 08:31:35;;;;;;;2.60;1.10;;;;;;;;;;10357316;28;20245;-75
2023/05/30 08:36:36;;;;;;;4.05;0.88;;;;;;;;;;10339626;28;20220;-78
2023/05/30 08:41:37;;;;;;;3.83;1.02;;;;;;;;;;10358619;28;20603;-78
2023/05/30 08:46:42;;;;;;;4.47;1.10;;;;;;;;;;10346690;28;20230;-78
2023/05/30 08:51:43;;;;;;;5.60;0.80;;;;;;;;;;10358855;28;20215;-79
2023/05/30 08:56:50;;;;;;;2.90;1.08;;;;;;;;;;10332951;28;20223;-77
2023/05/30 09:01:53;;;;;;;5.53;1.13;;;;;;;;;;10358586;28;20338;-80
2023/05/30 09:06:54;;;;;;;3.00;0.88;;;;;;;;;;10350961;28;20871;-80
2023/05/30 09:11:55;;;;;;;2.03;0.68;;;;;;;;;;10357702;28;20795;-80
2023/05/30 09:16:56;;;;;;;2.72;0.70;;;;;;;;;;10345437;28;20221;-77
2023/05/30 09:21:57;;;;;;;2.70;0.75;;;;;;;;;;10334832;28;21335;-79
2023/05/30 09:27:01;;;;;;;4.35;1.10;;;;;;;;;;10356700;28;20227;-79
2023/05/30 09:32:02;;;;;;;7.00;0.80;;;;;;;;;;10322730;28;20227;-79
2023/05/30 09:37:04;;;;;;;2.35;0.80;;;;;;;;;;10346085;28;20224;-79
2023/05/30 09:42:06;;;;;;;4.18;1.17;;;;;;;;;;10362961;28;20227;-81
2023/05/30 09:47:10;;;;;;;1.92;0.90;;;;;;;;;;10349260;28;20216;-82
2023/05/30 09:52:11;;;;;;;0.70;0.70;;;;;;;;;;10372071;28;20219;-80
2023/05/30 09:57:12;;;;;;;2.95;0.70;;;;;;;;;;10323162;28;20231;-82
2023/05/30 10:02:21;;;;;;;3.80;1.10;;;;;;;;;;10351226;28;20222;-81
2023/05/30 10:07:22;;;;;;;2.20;1.00;;;;;;;;;;10355621;28;20219;-81
2023/05/30 10:12:24;;;;;;;3.47;0.63;;;;;;;;;;10362932;28;20210;-79
2023/05/30 10:17:27;;;;;;;4.45;1.05;;;;;;;;;;10334512;28;20223;-82
2023/05/30 10:22:38;;;;;;;2.85;0.90;;;;;;;;;;10330031;28;20225;-78
2023/05/30 10:27:43;;;;;;;4.45;0.95;;;;;;;;;;10338321;28;20238;-79
2023/05/30 10:32:47;;;;;;;5.82;1.25;;;;;;;;;;10349114;28;20219;-79
2023/05/30 10:37:48;;;;;;;3.72;1.00;;;;;;;;;;10345412;28;20319;-79
2023/05/30 10:42:49;;;;;;;2.95;0.88;;;;;;;;;;10328873;28;20240;-77
2023/05/30 10:48:05;;;;;;;3.15;0.93;;;;;;;;;;10337829;28;20839;-76
2023/05/30 10:53:16;;;;;;;4.15;0.70;;;;;;;;;;10342602;28;20281;-77
2023/05/30 10:58:37;;;;;;;2.97;1.13;;;;;;;;;;10347905;28;20227;-79
2023/05/30 11:03:38;;;;;;;6.00;1.08;;;;;;;;;;10350987;28;20215;-78
2023/05/30 11:08:40;;;;;;;3.33;1.10;;;;;;;;;;10346831;28;20254;-77
2023/05/30 11:13:44;;;;;;;4.10;0.80;;;;;;;;;;10335013;28;20715;-77
2023/05/30 11:18:50;;;;;;;4.18;0.75;;;;;;;;;;10345924;28;20744;-76
2023/05/30 11:24:00;;;;;;;1.70;0.65;;;;;;;;;;10360497;28;20228;-78
2023/05/30 11:29:21;;;;;;;1.58;0.60;;;;;;;;;;10345037;28;20231;-77
2023/05/30 11:34:23;;;;;;;3.25;1.15;;;;;;;;;;10321595;28;20691;-77
2023/05/30 11:39:24;;;;;;;5.38;0.98;;;;;;;;;;10335670;28;20253;-78
2023/05/30 11:44:25;;;;;;;2.50;1.20;;;;;;;;;;10356863;28;20300;-78
2023/05/30 11:49:27;;;;;;;6.57;1.08;;;;;;;;;;10342377;28;20277;-77
2023/05/30 11:54:28;;;;;;;3.03;1.00;;;;;;;;;;10361471;28;20581;-78
2023/05/30 11:59:29;;;;;;;3.08;0.82;;;;;;;;;;10346901;28;20219;-78
2023/05/30 12:04:32;;;;;;;1.17;1.08;;;;;;;;;;10355107;28;20258;-78
2023/05/30 12:09:37;;;;;;;3.88;0.80;;;;;;;;;;10352301;28;21389;-78
2023/05/30 12:14:45;;;;;;;2.78;0.95;;;;;;;;;;10358271;28;20502;-77
2023/05/30 12:19:46;;;;;;;2.78;0.85;;;;;;;;;;10361942;28;20238;-78
2023/05/30 12:24:49;;;;;;;2.20;1.10;;;;;;;;;;10340685;28;20215;-77
2023/05/30 12:29:50;;;;;;;7.10;0.93;;;;;;;;;;10349874;28;20599;-78
2023/05/30 12:34:51;;;;;;;5.38;1.40;;;;;;;;;;10344961;28;20220;-78
2023/05/30 12:39:59;;;;;;;2.80;0.95;;;;;;;;;;10333077;28;20261;-76
2023/05/30 12:45:07;;;;;;;4.50;0.80;;;;;;;;;;10359380;28;20227;-78
2023/05/30 12:50:08;;;;;;;4.63;1.00;;;;;;;;;;10347507;28;20221;-79
2023/05/30 12:55:12;;;;;;;4.03;0.90;;;;;;;;;;10343675;28;20226;-77
2023/05/30 13:00:13;;;;;;;1.70;0.90;;;;;;;;;;10351766;28;20203;-77
2023/05/30 13:05:14;;;;;;;3.05;1.67;;;;;;;;;;10360983;28;20731;-78
2023/05/30 13:10:16;;;;;;;1.42;0.63;;;;;;;;;;10341026;28;20712;-79
2023/05/30 13:15:17;;;;;;;0.70;0.65;;;;;;;;;;10323341;28;20303;-78
2023/05/30 13:20:18;;;;;;;1.08;0.50;;;;;;;;;;10351637;28;20283;-78
2023/05/30 13:25:19;;;;;;;7.28;1.10;;;;;;;;;;10362919;28;20211;-79
2023/05/30 13:30:20;;;;;;;2.00;0.60;;;;;;;;;;10342090;28;20211;-78
2023/05/30 13:35:21;;;;;;;5.25;0.63;;;;;;;;;;10364439;28;20207;-79
2023/05/30 13:40:22;;;;;;;2.63;0.95;;;;;;;;;;10351013;28;20226;-78
2023/05/30 13:45:23;;;;;;;0.77;0.50;;;;;;;;;;10352751;28;20215;-77
2023/05/30 13:50:24;;;;;;;1.48;0.77;;;;;;;;;;10352977;28;20764;-77
2023/05/30 13:55:26;;;;;;;2.33;0.77;;;;;;;;;;10352717;28;20259;-78
2023/05/30 14:00:27;;;;;;;1.98;0.65;;;;;;;;;;10338056;28;20338;-78
2023/05/30 14:05:29;;;;;;;3.13;0.95;;;;;;;;;;10350534;28;20231;-79
2023/05/30 14:10:31;;;;;;;2.00;0.98;;;;;;;;;;10354605;28;20223;-79
2023/05/30 14:15:32;;;;;;;2.85;0.60;;;;;;;;;;10354518;28;20228;-77
2023/05/30 14:20:34;;;;;;;2.85;0.95;;;;;;;;;;10359576;28;20220;-79
2023/05/30 14:25:35;;;;;;;2.65;1.00;;;;;;;;;;10344258;28;20219;-78
2023/05/30 14:30:37;;;;;;;3.58;0.80;;;;;;;;;;10365279;28;20223;-78
2023/05/30 14:35:38;;;;;;;2.60;0.73;;;;;;;;;;10358927;28;20242;-78
2023/05/30 14:40:39;;;;;;;4.00;0.60;;;;;;;;;;10352903;28;20216;-79
2023/05/30 14:45:40;;;;;;;1.60;0.65;;;;;;;;;;10356205;28;20765;-78
2023/05/30 14:50:41;;;;;;;1.90;0.70;;;;;;;;;;10335285;28;20664;-77
2023/05/30 14:55:42;;;;;;;0.50;0.50;;;;;;;;;;10354122;28;20227;-78
2023/05/30 15:00:43;;;;;;;1.67;0.73;;;;;;;;;;10330844;28;21124;-78
2023/05/30 15:05:45;;;;;;;1.10;0.50;;;;;;;;;;10329320;28;20269;-75
2023/05/30 15:10:46;;;;;;;0.93;0.50;;;;;;;;;;10355342;28;20215;-78
2023/05/30 15:15:47;;;;;;;2.17;0.73;;;;;;;;;;10328261;28;20284;-78
2023/05/30 15:20:48;;;;;;;1.00;0.40;;;;;;;;;;10325913;28;20212;-77
2023/05/30 15:25:49;;;;;;;0.98;0.70;;;;;;;;;;10344831;28;20922;-78
2023/05/30 15:30:50;;;;;;;2.08;0.82;;;;;;;;;;10334613;28;20219;-75
2023/05/30 15:35:52;;;;;;;2.50;0.75;;;;;;;;;;10351902;28;22424;-76
2023/05/30 15:40:54;;;;;;;1.20;0.50;;;;;;;;;;10340139;28;20238;-77
2023/05/30 15:45:55;;;;;;;4.53;0.90;;;;;;;;;;10344499;28;20224;-78
2023/05/30 15:51:00;;;;;;;0.80;0.50;;;;;;;;;;10332768;28;20766;-76
2023/05/30 15:56:01;;;;;;;5.85;0.88;;;;;;;;;;10349936;28;20801;-76
2023/05/30 16:01:02;;;;;;;1.75;0.73;;;;;;;;;;10356046;28;20261;-77
2023/05/30 16:06:03;;;;;;;3.85;0.93;;;;;;;;;;10315546;28;20255;-77
2023/05/30 16:11:05;;;;;;;1.95;0.73;;;;;;;;;;10332903;28;20215;-75
2023/05/30 16:16:06;;;;;;;2.55;0.70;;;;;;;;;;10302455;28;20928;-76
2023/05/30 16:21:07;;;;;;;0.73;0.50;;;;;;;;;;10349487;28;20216;-76
2023/05/30 16:26:08;;;;;;;2.58;0.60;;;;;;;;;;10346083;28;20293;-76
2023/05/30 16:31:09;;;;;;;1.85;0.70;;;;;;;;;;10344305;28;20245;-76
2023/05/30 16:36:11;;;;;;;1.98;0.70;;;;;;;;;;10346332;28;20235;-73
2023/05/30 16:41:12;;;;;;;1.15;0.60;;;;;;;;;;10333319;28;20215;-76
2023/05/30 16:46:13;;;;;;;0.70;0.65;;;;;;;;;;10353082;28;20212;-75
2023/05/30 16:51:17;;;;;;;6.82;0.98;;;;;;;;;;10326671;28;20269;-72
2023/05/30 16:56:18;;;;;;;1.95;0.50;;;;;;;;;;10333442;28;20835;-74
2023/05/30 17:01:19;;;;;;;0.80;0.60;;;;;;;;;;10333032;28;20208;-75
2023/05/30 17:06:20;;;;;;;2.45;0.70;;;;;;;;;;10364632;28;20225;-74
2023/05/30 17:11:21;;;;;;;1.42;0.90;;;;;;;;;;10353825;28;21723;-78
2023/05/30 17:16:22;;;;;;;1.75;0.90;;;;;;;;;;10342284;28;20223;-75
2023/05/30 17:21:23;;;;;;;2.70;0.70;;;;;;;;;;10345654;28;20311;-77
2023/05/30 17:26:24;;;;;;;0.75;0.50;;;;;;;;;;10363050;28;20830;-74
2023/05/30 17:31:25;;;;;;;1.67;0.60;;;;;;;;;;10334322;28;20222;-78
2023/05/30 17:36:28;;;;;;;1.75;0.47;;;;;;;;;;10353767;28;20220;-76
2023/05/30 17:41:29;;;;;;;2.85;0.60;;;;;;;;;;10342543;28;21056;-76
2023/05/30 17:46:30;;;;;;;1.75;0.60;;;;;;;;;;10336857;28;20219;-76
2023/05/30 17:51:32;;;;;;;1.45;0.60;;;;;;;;;;10360253;28;20641;-74
2023/05/30 17:56:33;;;;;;;2.72;0.70;;;;;;;;;;10353014;28;20364;-74
2023/05/30 18:01:34;;;;;;;4.47;0.70;;;;;;;;;;10338107;28;20311;-74
2023/05/30 18:06:35;;;;;;;0.68;0.50;;;;;;;;;;10328972;28;20956;-75
2023/05/30 18:11:36;;;;;;;0.73;0.73;;;;;;;;;;10360629;28;20219;-74
2023/05/30 18:16:37;;;;;;;1.25;0.52;;;;;;;;;;10357035;28;20258;-78
2023/05/30 18:21:41;;;;;;;1.75;0.60;;;;;;;;;;10351735;28;20949;-74
2023/05/30 18:26:42;;;;;;;2.47;0.80;;;;;;;;;;10344362;28;20220;-76
2023/05/30 18:31:43;;;;;;;2.55;0.60;;;;;;;;;;10351766;28;20239;-74
2023/05/30 18:36:44;;;;;;;3.65;0.90;;;;;;;;;;10356154;28;20228;-73
2023/05/30 18:41:45;;;;;;;3.25;0.70;;;;;;;;;;10358962;28;20993;-76
2023/05/30 18:46:46;;;;;;;1.25;0.60;;;;;;;;;;10354056;28;20262;-75
2023/05/30 18:51:47;;;;;;;1.50;0.60;;;;;;;;;;10347277;28;20226;-77
2023/05/30 18:56:48;;;;;;;1.65;0.60;;;;;;;;;;10347457;28;20765;-75
2023/05/30 19:01:49;;;;;;;1.75;0.80;;;;;;;;;;10359694;28;20222;-76
2023/05/30 19:06:55;;;;;;;0.95;0.73;;;;;;;;;;10323806;28;20306;-74
2023/05/30 19:11:56;;;;;;;1.50;0.70;;;;;;;;;;10342272;28;20786;-75
2023/05/30 19:16:57;;;;;;;1.90;0.77;;;;;;;;;;10314808;28;20222;-74
2023/05/30 19:21:58;;;;;;;1.85;0.60;;;;;;;;;;10335249;28;20258;-76
2023/05/30 19:26:59;;;;;;;0.75;0.68;;;;;;;;;;10339766;28;20775;-74
2023/05/30 19:32:00;;;;;;;5.70;1.15;;;;;;;;;;10342270;28;20226;-74
2023/05/30 19:37:01;;;;;;;0.80;0.80;;;;;;;;;;10356101;28;20218;-77
2023/05/30 19:42:02;;;;;;;3.17;0.60;;;;;;;;;;10333510;28;20242;-76
2023/05/30 19:47:04;;;;;;;1.30;0.60;;;;;;;;;;10336363;28;20211;-75
2023/05/30 19:52:05;;;;;;;0.52;0.50;;;;;;;;;;10344934;28;20215;-77
2023/05/30 19:57:07;;;;;;;3.90;1.13;;;;;;;;;;10353011;28;20277;-77
2023/05/30 20:02:08;;;;;;;3.60;0.60;;;;;;;;;;10345857;28;20258;-76
2023/05/30 20:07:09;;;;;;;4.90;0.85;;;;;;;;;;10334284;28;20270;-76
2023/05/30 20:12:10;;;;;;;1.83;0.85;;;;;;;;;;10369265;28;20220;-76
2023/05/30 20:17:11;;;;;;;2.50;0.98;;;;;;;;;;10339702;28;20234;-75
2023/05/30 20:22:12;;;;;;;5.38;1.30;;;;;;;;;;10368952;28;20215;-76
2023/05/30 20:27:13;;;;;;;1.95;0.98;;;;;;;;;;10337213;28;21006;-76
2023/05/30 20:32:14;;;;;;;2.47;0.73;;;;;;;;;;10374404;28;20204;-77
2023/05/30 20:37:15;;;;;;;1.20;0.88;;;;;;;;;;10346055;28;20326;-78
2023/05/30 20:42:17;;;;;;;0.70;0.60;;;;;;;;;;10369856;28;20208;-78
2023/05/30 20:47:18;;;;;;;0.73;0.70;;;;;;;;;;10376200;28;20878;-78
2023/05/30 20:52:19;;;;;;;3.90;1.30;;;;;;;;;;10373375;28;20220;-78
2023/05/30 20:57:20;;;;;;;2.80;1.00;;;;;;;;;;10344127;28;20278;-79
2023/05/30 21:02:21;;;;;;;2.00;0.80;;;;;;;;;;10371070;28;20638;-79
2023/05/30 21:07:22;;;;;;;1.05;0.93;;;;;;;;;;10336873;28;20923;-78
2023/05/30 21:12:23;;;;;;;3.42;0.98;;;;;;;;;;10366014;28;20215;-78
2023/05/30 21:17:24;;;;;;;1.52;0.93;;;;;;;;;;10364863;28;20239;-77
2023/05/30 21:22:25;;;;;;;1.55;0.90;;;;;;;;;;10354859;28;20211;-79
2023/05/30 21:27:26;;;;;;;1.33;0.90;;;;;;;;;;10368946;28;20222;-77
2023/05/30 21:32:27;;;;;;;2.55;0.77;;;;;;;;;;10327797;28;21585;-77
2023/05/30 21:37:28;;;;;;;4.25;0.70;;;;;;;;;;10371174;28;20224;-77
2023/05/30 21:42:29;;;;;;;1.75;1.02;;;;;;;;;;10379576;28;20739;-76
2023/05/30 21:47:30;;;;;;;4.05;0.80;;;;;;;;;;10361314;28;20207;-77
2023/05/30 21:52:31;;;;;;;2.47;0.93;;;;;;;;;;10317593;28;20725;-77
2023/05/30 21:57:32;;;;;;;1.83;1.05;;;;;;;;;;10353914;28;20239;-77
2023/05/30 22:02:35;;;;;;;2.13;0.80;;;;;;;;;;10366565;28;20306;-78
2023/05/30 22:07:37;;;;;;;4.03;1.25;;;;;;;;;;10375247;28;20211;-74
2023/05/30 22:12:38;;;;;;;1.55;0.68;;;;;;;;;;10361129;28;20219;-78
2023/05/30 22:17:39;;;;;;;3.97;1.05;;;;;;;;;;10373235;28;20226;-77
2023/05/30 22:22:40;;;;;;;1.70;0.80;;;;;;;;;;10365132;28;20969;-75
2023/05/30 22:27:41;;;;;;;2.95;0.70;;;;;;;;;;10373684;28;20227;-76
2023/05/30 22:32:42;;;;;;;3.58;0.88;;;;;;;;;;10359528;28;21757;-76
2023/05/30 22:37:43;;;;;;;2.17;0.75;;;;;;;;;;10350226;28;20223;-76
2023/05/30 22:42:44;;;;;;;1.02;0.80;;;;;;;;;;10361198;28;20464;-78
2023/05/30 22:47:45;;;;;;;2.08;0.77;;;;;;;;;;10362467;28;20317;-76
2023/05/30 22:52:46;;;;;;;0.80;0.77;;;;;;;;;;10360334;28;20215;-76
2023/05/30 22:57:47;;;;;;;0.95;0.85;;;;;;;;;;10359258;28;20239;-79
2023/05/30 23:02:48;;;;;;;2.05;0.95;;;;;;;;;;10381729;28;20211;-77
2023/05/30 23:07:49;;;;;;;0.50;0.50;;;;;;;;;;10349506;28;20246;-78
2023/05/30 23:12:50;;;;;;;4.63;1.13;;;;;;;;;;10378261;28;20689;-79
2023/05/30 23:17:51;;;;;;;4.13;0.82;;;;;;;;;;10377314;28;20890;-78
2023/05/30 23:22:52;;;;;;;3.30;0.70;;;;;;;;;;10378113;28;20231;-77
2023/05/30 23:27:53;;;;;;;0.95;0.70;;;;;;;;;;10353060;28;20689;-78
2023/05/30 23:32:54;;;;;;;1.00;0.90;;;;;;;;;;10358505;28;20736;-79
2023/05/30 23:37:57;;;;;;;1.52;0.82;;;;;;;;;;10372753;28;20254;-75
2023/05/30 23:42:58;;;;;;;1.10;0.70;;;;;;;;;;10355787;28;20720;-77
2023/05/30 23:47:59;;;;;;;2.00;0.80;;;;;;;;;;10368432;28;20227;-78
2023/05/30 23:53:00;;;;;;;0.95;0.68;;;;;;;;;;10342294;28;20269;-76
2023/05/30 23:58:01;;;;;;;1.27;0.77;;;;;;;;;;10350045;28;20223;-78
